Time;durP1;ratioP1;P1;durP2;ratioP2;P2;SDS_P1;SDS_P2;PMS_P1;PMS_P2;Temp;Humidity;BMP_temperature;BMP_pressure;BME280_temperature;BME280_humidity;BME280_pressure;Samples;Min_cycle;Max_cycle;Signal;HPM_P1;HPM_P2
2023/12/23 00:01:30;;;;;;;4.38;1.60;;;12.10;99.90;;;;;;5050547;28;20051;-84
2023/12/23 00:03:56;;;;;;;9.38;1.65;;;12.00;99.90;;;;;;5033167;28;20037;-86
2023/12/23 00:06:21;;;;;;;6.85;1.55;;;11.50;99.90;;;;;;5050817;28;20032;-84
2023/12/23 00:08:47;;;;;;;7.70;1.88;;;;;;;;;;5050585;28;20635;-86
2023/12/23 00:11:13;;;;;;;6.72;1.58;;;10.60;99.90;;;;;;5050471;28;20082;-86
2023/12/23 00:13:38;;;;;;;6.97;2.40;;;12.10;99.90;;;;;;5034446;28;20029;-84
2023/12/23 00:16:04;;;;;;;4.88;1.42;;;12.20;99.90;;;;;;5030603;28;20067;-85
2023/12/23 00:18:29;;;;;;;8.55;1.55;;;10.90;99.90;;;;;;5030372;28;20023;-84
2023/12/23 00:20:55;;;;;;;11.35;1.63;;;11.50;99.90;;;;;;5031233;28;20028;-85
2023/12/23 00:23:21;;;;;;;7.22;1.65;;;11.40;99.90;;;;;;5043062;28;20496;-87
2023/12/23 00:25:46;;;;;;;2.72;1.33;;;11.80;99.90;;;;;;5032318;28;20028;-87
2023/12/23 00:28:12;;;;;;;3.47;1.52;;;11.00;99.90;;;;;;5050177;28;20021;-86
2023/12/23 00:30:37;;;;;;;5.35;1.83;;;11.50;99.90;;;;;;5050171;28;20078;-84
2023/12/23 00:33:05;;;;;;;9.98;1.98;;;11.70;99.90;;;;;;5039647;28;20021;-85
2023/12/23 00:35:30;;;;;;;8.07;1.88;;;10.70;99.90;;;;;;5030289;28;20063;-85
2023/12/23 00:37:56;;;;;;;3.30;1.42;;;11.10;99.90;;;;;;5031178;28;20070;-87
2023/12/23 00:40:21;;;;;;;6.60;1.63;;;11.30;99.90;;;;;;5030403;28;20030;-85
2023/12/23 00:42:47;;;;;;;7.50;1.58;;;11.10;99.90;;;;;;5037465;28;20040;-86
2023/12/23 00:45:12;;;;;;;6.10;1.40;;;11.60;99.90;;;;;;5049474;28;20393;-84
2023/12/23 00:47:38;;;;;;;5.38;1.52;;;11.70;99.90;;;;;;5049773;28;20037;-87
2023/12/23 00:50:04;;;;;;;3.17;1.40;;;12.00;99.90;;;;;;5049812;28;20021;-86
2023/12/23 00:52:31;;;;;;;5.53;1.58;;;10.80;99.90;;;;;;5045733;28;20370;-85
2023/12/23 00:54:56;;;;;;;9.43;1.80;;;12.10;99.90;;;;;;5030395;28;20500;-85
2023/12/23 00:57:22;;;;;;;4.63;1.50;;;11.50;99.90;;;;;;5027810;28;20021;-88
2023/12/23 00:59:47;;;;;;;8.25;1.60;;;11.50;99.90;;;;;;5028453;28;20029;-84
2023/12/23 01:02:14;;;;;;;8.10;1.77;;;11.90;99.90;;;;;;5031092;28;20160;-84
2023/12/23 01:04:40;;;;;;;6.15;2.28;;;11.90;99.90;;;;;;5049652;28;20104;-86
2023/12/23 01:07:06;;;;;;;10.95;2.08;;;11.10;99.90;;;;;;5049509;28;20021;-84
2023/12/23 01:09:31;;;;;;;6.07;1.80;;;11.40;99.90;;;;;;5049460;28;20103;-84
2023/12/23 01:11:57;;;;;;;7.65;1.63;;;11.90;99.90;;;;;;5049960;28;20036;-85
2023/12/23 01:14:23;;;;;;;8.98;2.53;;;11.80;99.90;;;;;;5029410;28;20101;-85
2023/12/23 01:16:48;;;;;;;6.55;1.83;;;11.80;99.90;;;;;;5029476;28;20021;-85
2023/12/23 01:19:14;;;;;;;10.00;1.77;;;11.60;99.90;;;;;;5029420;28;20030;-88
2023/12/23 01:21:39;;;;;;;5.82;1.75;;;12.00;99.90;;;;;;5029381;28;20034;-86
2023/12/23 01:24:05;;;;;;;9.80;1.95;;;11.60;99.90;;;;;;5046441;28;20096;-85
2023/12/23 01:26:31;;;;;;;6.78;1.70;;;11.50;99.90;;;;;;5049981;28;20025;-87
2023/12/23 01:29:00;;;;;;;7.05;1.58;;;11.80;99.90;;;;;;5049204;28;20032;-85
2023/12/23 01:31:26;;;;;;;6.70;1.50;;;11.60;99.90;;;;;;5049148;28;20108;-87
2023/12/23 01:33:52;;;;;;;4.95;1.40;;;11.50;99.90;;;;;;5048482;28;20339;-87
2023/12/23 01:36:18;;;;;;;4.43;1.45;;;11.60;99.90;;;;;;5049064;28;20083;-87
2023/12/23 01:38:43;;;;;;;7.22;2.00;;;11.60;99.90;;;;;;5048999;28;20032;-85
2023/12/23 01:41:09;;;;;;;10.65;1.80;;;11.30;99.90;;;;;;5048901;28;20033;-85
2023/12/23 01:43:34;;;;;;;5.43;1.55;;;10.90;99.90;;;;;;5048317;28;20493;-87
2023/12/23 01:46:01;;;;;;;8.68;1.60;;;11.30;99.90;;;;;;5049669;28;20028;-84
2023/12/23 01:48:28;;;;;;;5.97;1.60;;;10.80;99.90;;;;;;5049019;28;20142;-84
2023/12/23 01:50:56;;;;;;;6.22;1.85;;;11.10;99.90;;;;;;5048935;28;20029;-87
2023/12/23 01:53:24;;;;;;;6.35;1.77;;;10.40;99.90;;;;;;5048488;28;20397;-85
2023/12/23 01:55:50;;;;;;;3.73;1.60;;;11.30;99.90;;;;;;5048962;28;20029;-86
2023/12/23 01:58:16;;;;;;;3.55;1.70;;;11.40;99.90;;;;;;5048783;28;20040;-87
2023/12/23 02:00:42;;;;;;;8.63;1.67;;;11.10;99.90;;;;;;5048776;28;20045;-85
2023/12/23 02:03:08;;;;;;;4.95;2.00;;;11.20;99.90;;;;;;5048043;28;20076;-86
2023/12/23 02:05:34;;;;;;;3.42;1.35;;;10.50;99.90;;;;;;5049576;28;20024;-84
2023/12/23 02:08:00;;;;;;;10.65;1.92;;;11.60;99.90;;;;;;5051912;28;20040;-85
2023/12/23 02:10:26;;;;;;;6.00;1.50;;;11.40;99.90;;;;;;5052874;28;20021;-85
2023/12/23 02:13:01;;;;;;;5.07;1.73;;;10.20;99.90;;;;;;5052355;28;20021;-85
2023/12/23 02:15:27;;;;;;;7.22;2.17;;;10.20;99.90;;;;;;5052741;28;20029;-88
2023/12/23 02:17:59;;;;;;;5.15;2.00;;;10.20;99.90;;;;;;5051988;28;20028;-88
2023/12/23 02:20:25;;;;;;;4.60;1.50;;;11.90;99.90;;;;;;5052588;28;20346;-87
2023/12/23 02:22:51;;;;;;;3.67;1.40;;;10.90;99.90;;;;;;5052085;28;20037;-85
2023/12/23 02:25:16;;;;;;;4.22;1.65;;;11.30;99.90;;;;;;5052310;28;20024;-86
2023/12/23 02:27:50;;;;;;;5.68;1.50;;;10.30;99.90;;;;;;5052099;28;20037;-85
2023/12/23 02:30:16;;;;;;;4.05;1.20;;;11.20;99.90;;;;;;5052617;28;20052;-86
2023/12/23 02:32:43;;;;;;;4.30;1.38;;;10.30;99.90;;;;;;5052067;28;20439;-84
2023/12/23 02:35:09;;;;;;;10.13;1.70;;;11.60;99.90;;;;;;5052365;28;20488;-86
2023/12/23 02:37:34;;;;;;;5.60;1.38;;;11.10;99.90;;;;;;5053186;28;20032;-85
2023/12/23 02:40:00;;;;;;;8.85;1.92;;;11.00;99.90;;;;;;5052159;28;20051;-85
2023/12/23 02:42:26;;;;;;;4.75;1.30;;;11.10;99.90;;;;;;5033959;28;20505;-83
2023/12/23 02:44:51;;;;;;;5.82;1.60;;;11.00;99.90;;;;;;5052184;28;20087;-88
2023/12/23 02:47:17;;;;;;;4.10;1.80;;;11.20;99.90;;;;;;5052222;28;20397;-85
2023/12/23 02:49:42;;;;;;;4.28;1.38;;;10.90;99.90;;;;;;5052192;28;20017;-87
2023/12/23 02:52:08;;;;;;;5.18;1.45;;;11.10;99.90;;;;;;5052077;28;20032;-86
2023/12/23 02:54:33;;;;;;;4.47;1.52;;;11.30;99.90;;;;;;5052171;28;20061;-88
2023/12/23 02:56:59;;;;;;;9.52;2.35;;;11.30;99.90;;;;;;5051917;28;20029;-86
2023/12/23 02:59:25;;;;;;;3.63;1.42;;;11.20;99.90;;;;;;5051977;28;20032;-86
2023/12/23 03:01:50;;;;;;;6.68;1.65;;;11.60;99.90;;;;;;5051662;28;20044;-84
2023/12/23 03:04:16;;;;;;;3.40;1.25;;;11.40;99.90;;;;;;5051564;28;20477;-85
2023/12/23 03:06:41;;;;;;;4.63;1.40;;;11.50;99.90;;;;;;5051759;28;20381;-87
2023/12/23 03:09:07;;;;;;;7.30;1.90;;;11.50;99.90;;;;;;5052513;28;20025;-85
2023/12/23 03:11:33;;;;;;;5.43;1.42;;;10.50;99.90;;;;;;5052473;28;20496;-85
2023/12/23 03:14:00;;;;;;;7.15;1.38;;;11.80;99.90;;;;;;5051368;28;20384;-86
2023/12/23 03:16:29;;;;;;;5.88;1.50;;;11.40;99.90;;;;;;5050293;28;20087;-87
2023/12/23 03:18:55;;;;;;;11.73;2.10;;;11.30;99.90;;;;;;5041546;28;20029;-86
2023/12/23 03:21:23;;;;;;;9.05;1.77;;;11.60;99.90;;;;;;5051479;28;20435;-87
2023/12/23 03:23:48;;;;;;;8.10;1.27;;;11.00;99.90;;;;;;5033273;28;20037;-86
2023/12/23 03:26:14;;;;;;;6.60;2.08;;;11.80;99.90;;;;;;5033446;28;20029;-85
2023/12/23 03:28:40;;;;;;;7.70;1.83;;;11.00;99.90;;;;;;5050412;28;20488;-84
2023/12/23 03:31:06;;;;;;;5.47;1.60;;;11.40;99.90;;;;;;5052094;28;20025;-84
2023/12/23 03:33:31;;;;;;;9.15;1.65;;;12.00;99.90;;;;;;5051260;28;20032;-85
2023/12/23 03:35:58;;;;;;;6.75;1.50;;;11.50;99.90;;;;;;5051332;28;20027;-87
2023/12/23 03:38:24;;;;;;;6.47;1.48;;;11.60;99.90;;;;;;5050800;28;20025;-85
2023/12/23 03:40:50;;;;;;;9.73;1.65;;;11.80;99.90;;;;;;5033400;28;20426;-85
2023/12/23 03:43:15;;;;;;;7.35;1.77;;;11.60;99.90;;;;;;5033183;28;20065;-87
2023/12/23 03:45:41;;;;;;;5.43;1.95;;;11.00;99.90;;;;;;5050980;28;20025;-86
2023/12/23 03:48:06;;;;;;;7.57;1.80;;;10.30;99.90;;;;;;5051533;28;20041;-86
2023/12/23 03:50:32;;;;;;;4.15;1.73;;;10.20;99.90;;;;;;5050953;28;20028;-84
2023/12/23 03:52:58;;;;;;;4.63;1.65;;;11.10;99.90;;;;;;5050966;28;20039;-85
2023/12/23 03:55:29;;;;;;;8.00;1.70;;;10.90;99.90;;;;;;5050834;28;20484;-85
2023/12/23 03:57:55;;;;;;;4.75;1.52;;;11.50;99.90;;;;;;5049854;28;20472;-86
2023/12/23 04:00:20;;;;;;;3.75;1.50;;;10.80;99.90;;;;;;5032938;28;20036;-87
2023/12/23 04:02:46;;;;;;;5.53;1.83;;;11.60;99.90;;;;;;5050535;28;20037;-85
2023/12/23 04:05:12;;;;;;;4.72;1.55;;;11.50;99.90;;;;;;5050753;28;20024;-85
2023/12/23 04:07:37;;;;;;;7.93;2.00;;;10.40;99.90;;;;;;5051519;28;20056;-88
2023/12/23 04:10:04;;;;;;;6.43;1.95;;;10.80;99.90;;;;;;5031324;28;20036;-85
2023/12/23 04:12:29;;;;;;;3.45;1.45;;;10.30;99.90;;;;;;5030673;28;20021;-87
2023/12/23 04:14:55;;;;;;;6.68;1.90;;;11.70;99.90;;;;;;5030583;28;20071;-86
2023/12/23 04:17:20;;;;;;;6.90;1.90;;;11.00;99.90;;;;;;5030615;28;20056;-84
2023/12/23 04:19:46;;;;;;;5.60;2.00;;;11.30;99.90;;;;;;5046210;28;20029;-87
2023/12/23 04:22:12;;;;;;;9.80;1.67;;;11.30;99.90;;;;;;5050199;28;20061;-84
2023/12/23 04:24:37;;;;;;;8.00;2.15;;;11.10;99.90;;;;;;5051191;28;20032;-85
2023/12/23 04:27:03;;;;;;;6.45;1.50;;;11.70;99.90;;;;;;5049665;28;20108;-84
2023/12/23 04:29:30;;;;;;;7.28;1.85;;;10.30;99.90;;;;;;5050200;28;20028;-85
2023/12/23 04:31:56;;;;;;;7.18;1.60;;;11.60;99.90;;;;;;5050048;28;20445;-87
2023/12/23 04:34:21;;;;;;;7.97;1.63;;;11.60;99.90;;;;;;5050160;28;20036;-85
2023/12/23 04:36:48;;;;;;;5.30;1.58;;;10.80;99.90;;;;;;5050044;28;20020;-87
2023/12/23 04:39:15;;;;;;;5.47;1.60;;;10.90;99.90;;;;;;5049654;28;20049;-87
2023/12/23 04:41:46;;;;;;;10.57;1.80;;;11.80;99.90;;;;;;5032866;28;20078;-84
2023/12/23 04:44:15;;;;;;;6.80;2.03;;;11.20;99.90;;;;;;5050390;28;20108;-84
2023/12/23 04:46:42;;;;;;;3.65;1.40;;;11.00;99.90;;;;;;5050722;28;20025;-84
2023/12/23 04:49:08;;;;;;;6.70;1.52;;;11.30;99.90;;;;;;5031735;28;20044;-84
2023/12/23 04:51:34;;;;;;;7.13;1.50;;;11.60;99.90;;;;;;5042782;28;20032;-87
2023/12/23 04:54:00;;;;;;;7.53;1.80;;;10.70;99.90;;;;;;5049744;28;20037;-85
2023/12/23 04:56:25;;;;;;;7.45;1.40;;;11.60;99.90;;;;;;5049673;28;20017;-85
2023/12/23 04:58:51;;;;;;;4.32;1.38;;;11.90;99.90;;;;;;5033302;28;20026;-86
2023/12/23 05:01:17;;;;;;;7.13;1.88;;;11.20;99.90;;;;;;5029542;28;20026;-86
2023/12/23 05:03:42;;;;;;;10.60;1.70;;;10.50;99.90;;;;;;5030471;28;20516;-85
2023/12/23 05:06:08;;;;;;;5.45;1.40;;;11.60;99.90;;;;;;5029648;28;20040;-84
2023/12/23 05:08:33;;;;;;;6.20;1.70;;;11.70;99.90;;;;;;5042813;28;20037;-86
2023/12/23 05:10:59;;;;;;;6.10;1.30;;;11.50;99.90;;;;;;5049408;28;20029;-87
2023/12/23 05:13:25;;;;;;;4.43;1.23;;;11.20;99.90;;;;;;5031459;28;20025;-84
2023/12/23 05:15:50;;;;;;;6.22;1.50;;;11.40;99.90;;;;;;5031572;28;20104;-85
2023/12/23 05:18:16;;;;;;;8.70;1.17;;;11.00;99.90;;;;;;5048569;28;20032;-84
2023/12/23 05:20:42;;;;;;;7.13;1.30;;;11.40;99.90;;;;;;5032294;28;20388;-84
2023/12/23 05:23:08;;;;;;;4.35;1.30;;;11.40;99.90;;;;;;5049149;28;20087;-84
2023/12/23 05:25:34;;;;;;;7.50;1.52;;;11.60;99.90;;;;;;5049257;28;20025;-85
2023/12/23 05:27:59;;;;;;;2.17;0.95;;;11.30;99.90;;;;;;5048802;28;20170;-84
2023/12/23 05:30:25;;;;;;;4.07;1.15;;;11.60;99.90;;;;;;5049027;28;20025;-87
2023/12/23 05:32:51;;;;;;;3.80;1.35;;;12.00;99.90;;;;;;5055146;28;20078;-85
2023/12/23 05:35:16;;;;;;;4.38;1.58;;;11.40;99.90;;;;;;5051462;28;20554;-87
2023/12/23 05:37:42;;;;;;;6.43;1.75;;;11.40;99.90;;;;;;5053343;28;20024;-84
2023/12/23 05:40:09;;;;;;;3.50;1.50;;;10.60;99.90;;;;;;5069137;28;20066;-85
2023/12/23 05:42:34;;;;;;;3.13;1.30;;;10.60;99.90;;;;;;5038772;28;20412;-87
2023/12/23 05:45:00;;;;;;;5.78;1.45;;;11.40;99.90;;;;;;5031154;28;20499;-85
2023/12/23 05:47:26;;;;;;;4.20;1.30;;;11.50;99.90;;;;;;5030748;28;20032;-85
2023/12/23 05:49:51;;;;;;;3.40;1.42;;;11.70;99.90;;;;;;5052550;28;20022;-85
2023/12/23 05:52:17;;;;;;;4.72;1.23;;;11.20;99.90;;;;;;5064305;28;20036;-84
2023/12/23 05:54:42;;;;;;;8.68;1.50;;;11.10;99.90;;;;;;5067973;28;20024;-86
2023/12/23 05:57:08;;;;;;;3.67;1.40;;;11.80;99.90;;;;;;5068690;28;20027;-84
2023/12/23 05:59:33;;;;;;;6.32;1.80;;;12.00;99.90;;;;;;5068960;28;20029;-88
2023/12/23 06:01:59;;;;;;;9.30;1.35;;;11.90;99.90;;;;;;5068403;28;20028;-87
2023/12/23 06:04:24;;;;;;;4.90;1.05;;;11.80;99.90;;;;;;5062990;28;20071;-83
2023/12/23 06:06:50;;;;;;;8.98;1.60;;;11.80;99.90;;;;;;5048751;28;20025;-83
2023/12/23 06:09:16;;;;;;;3.33;1.40;;;11.00;99.90;;;;;;5052067;28;20029;-86
2023/12/23 06:11:41;;;;;;;3.13;1.20;;;11.10;99.90;;;;;;5050584;28;20017;-87
2023/12/23 06:14:07;;;;;;;4.10;1.52;;;11.90;99.90;;;;;;5050657;28;20385;-86
2023/12/23 06:16:37;;;;;;;7.93;1.88;;;11.30;99.90;;;;;;5068027;28;20057;-85
2023/12/23 06:19:03;;;;;;;8.30;1.60;;;11.20;99.90;;;;;;5050206;28;20450;-86
2023/12/23 06:21:29;;;;;;;6.78;1.55;;;11.10;99.90;;;;;;5062222;28;20025;-83
2023/12/23 06:23:54;;;;;;;3.60;1.10;;;11.60;99.90;;;;;;5048653;28;20473;-87
2023/12/23 06:26:20;;;;;;;7.35;1.73;;;10.80;99.90;;;;;;5038221;28;20048;-83
2023/12/23 06:28:46;;;;;;;3.67;1.13;;;11.90;99.90;;;;;;5035935;28;20048;-83
2023/12/23 06:31:11;;;;;;;11.02;2.45;;;12.00;99.90;;;;;;5051496;28;20021;-84
2023/12/23 06:33:37;;;;;;;8.68;1.40;;;11.30;99.90;;;;;;5068421;28;20391;-87
2023/12/23 06:36:03;;;;;;;4.22;1.52;;;11.60;99.90;;;;;;5050042;28;20065;-88
2023/12/23 06:38:28;;;;;;;2.20;1.20;;;10.60;99.90;;;;;;5048250;28;20028;-88
2023/12/23 06:40:54;;;;;;;3.80;1.48;;;11.50;99.90;;;;;;5048489;28;20394;-87
2023/12/23 06:43:20;;;;;;;6.18;1.48;;;11.00;99.90;;;;;;5048302;28;20051;-83
2023/12/23 06:45:45;;;;;;;6.68;1.40;;;11.90;99.90;;;;;;5049128;28;20021;-87
2023/12/23 06:48:11;;;;;;;5.68;1.50;;;11.60;99.90;;;;;;5065996;28;20083;-87
2023/12/23 06:50:37;;;;;;;3.28;1.25;;;12.00;99.90;;;;;;5068357;28;20020;-87
2023/12/23 06:53:02;;;;;;;6.03;1.35;;;11.60;99.90;;;;;;5069002;28;20050;-85
2023/12/23 06:55:28;;;;;;;6.32;1.75;;;10.60;99.90;;;;;;5065418;28;20017;-87
2023/12/23 06:57:55;;;;;;;5.43;1.92;;;12.00;99.90;;;;;;5032044;28;20056;-85
2023/12/23 07:00:20;;;;;;;3.95;1.00;;;11.80;99.90;;;;;;5051107;28;20108;-86
2023/12/23 07:02:46;;;;;;;7.30;1.40;;;11.80;99.90;;;;;;5062951;28;20124;-85
2023/12/23 07:05:12;;;;;;;4.57;1.73;;;11.10;99.90;;;;;;5036855;28;20028;-84
2023/12/23 07:07:37;;;;;;;7.07;1.40;;;11.10;99.90;;;;;;5044522;28;20032;-87
2023/12/23 07:10:03;;;;;;;5.15;1.38;;;11.40;99.90;;;;;;5060188;28;20032;-86
2023/12/23 07:12:29;;;;;;;7.75;1.65;;;10.60;99.90;;;;;;5065149;28;20481;-84
2023/12/23 07:14:54;;;;;;;5.78;1.38;;;11.50;99.90;;;;;;5038488;28;20044;-84
2023/12/23 07:17:20;;;;;;;5.20;1.25;;;11.40;99.90;;;;;;5032349;28;20405;-83
2023/12/23 07:19:46;;;;;;;5.75;1.20;;;11.00;99.90;;;;;;5033025;28;20489;-87
2023/12/23 07:22:11;;;;;;;5.28;1.15;;;11.00;99.90;;;;;;5031533;28;20037;-86
2023/12/23 07:24:39;;;;;;;9.50;2.03;;;11.50;99.90;;;;;;5033819;28;20040;-87
2023/12/23 07:27:05;;;;;;;8.18;1.63;;;11.60;99.90;;;;;;5051352;28;20384;-84
2023/12/23 07:29:31;;;;;;;3.17;1.20;;;10.80;99.90;;;;;;5051434;28;20029;-87
2023/12/23 07:31:57;;;;;;;4.03;2.00;;;;;;;;;;5035696;28;20541;-88
2023/12/23 07:34:22;;;;;;;8.95;1.42;;;10.50;99.90;;;;;;5062190;28;20028;-85
2023/12/23 07:36:48;;;;;;;4.57;1.33;;;12.00;99.90;;;;;;5061265;28;20018;-87
2023/12/23 07:39:14;;;;;;;4.53;1.40;;;12.20;99.90;;;;;;5051734;28;20126;-85
2023/12/23 07:41:39;;;;;;;3.03;1.52;;;11.90;99.90;;;;;;5050998;28;20017;-86
2023/12/23 07:44:05;;;;;;;2.60;1.30;;;11.70;99.90;;;;;;5032842;28;20033;-86
2023/12/23 07:46:30;;;;;;;5.70;3.35;;;11.20;99.90;;;;;;5050914;28;20090;-87
2023/12/23 07:48:56;;;;;;;2.15;1.10;;;11.80;99.90;;;;;;5033075;28;20028;-86
2023/12/23 07:51:22;;;;;;;4.80;1.45;;;12.20;99.90;;;;;;5051415;28;20075;-86
2023/12/23 07:53:48;;;;;;;4.97;1.40;;;11.70;99.90;;;;;;5051284;28;20032;-87
2023/12/23 07:56:13;;;;;;;4.15;1.42;;;11.40;99.90;;;;;;5032652;28;20017;-88
2023/12/23 07:58:39;;;;;;;2.38;1.13;;;11.80;99.90;;;;;;5032489;28;20068;-88
2023/12/23 08:01:04;;;;;;;2.88;1.60;;;12.10;99.90;;;;;;5032221;28;20040;-86
2023/12/23 08:03:30;;;;;;;2.60;1.10;;;11.40;99.90;;;;;;5050439;28;20089;-86
2023/12/23 08:05:55;;;;;;;6.40;1.33;;;11.60;99.90;;;;;;5050001;28;20100;-83
2023/12/23 08:08:21;;;;;;;5.07;1.45;;;10.80;99.90;;;;;;5051249;28;20025;-86
2023/12/23 08:10:46;;;;;;;3.55;1.55;;;12.00;99.90;;;;;;5049309;28;20036;-86
2023/12/23 08:13:12;;;;;;;5.28;1.42;;;;;;;;;;5050595;28;20302;-86
2023/12/23 08:15:38;;;;;;;5.18;1.55;;;11.40;99.90;;;;;;5050402;28;20392;-84
2023/12/23 08:18:04;;;;;;;2.70;1.20;;;11.70;99.90;;;;;;5050489;28;20021;-82
2023/12/23 08:20:29;;;;;;;3.05;1.88;;;10.80;99.90;;;;;;5050410;28;20039;-85
2023/12/23 08:22:55;;;;;;;1.65;1.20;;;11.50;99.90;;;;;;5050352;28;20108;-86
2023/12/23 08:25:20;;;;;;;2.38;0.90;;;11.80;99.90;;;;;;5051099;28;20488;-83
2023/12/23 08:27:46;;;;;;;4.10;1.17;;;12.00;99.90;;;;;;5050260;28;20020;-83
2023/12/23 08:30:12;;;;;;;4.32;0.90;;;12.00;99.90;;;;;;5050064;28;20021;-85
2023/12/23 08:32:37;;;;;;;0.85;0.82;;;10.80;99.90;;;;;;5050182;28;20029;-86
2023/12/23 08:35:03;;;;;;;3.50;1.17;;;11.80;99.90;;;;;;5050206;28;20017;-86
2023/12/23 08:37:29;;;;;;;1.52;1.00;;;10.80;99.90;;;;;;5050052;28;20478;-85
2023/12/23 08:39:55;;;;;;;5.15;1.13;;;11.40;99.90;;;;;;5049525;28;20028;-85
2023/12/23 08:42:20;;;;;;;2.33;1.00;;;11.00;99.90;;;;;;5050464;28;20029;-86
2023/12/23 08:44:47;;;;;;;1.67;0.90;;;11.30;99.90;;;;;;5049933;28;20035;-85
2023/12/23 08:47:13;;;;;;;2.78;0.90;;;11.50;99.90;;;;;;5049884;28;20480;-85
2023/12/23 08:49:39;;;;;;;1.40;0.73;;;11.50;99.90;;;;;;5049878;28;20021;-86
2023/12/23 08:52:06;;;;;;;1.70;0.80;;;11.50;99.90;;;;;;5041746;28;20021;-83
2023/12/23 08:54:32;;;;;;;1.95;1.27;;;10.90;99.90;;;;;;5037447;28;20154;-82
2023/12/23 08:56:58;;;;;;;1.80;1.00;;;11.70;99.90;;;;;;5041366;28;20101;-82
2023/12/23 08:59:23;;;;;;;3.08;1.00;;;11.50;99.90;;;;;;5048084;28;20511;-87
2023/12/23 09:01:49;;;;;;;1.33;1.00;;;11.90;99.90;;;;;;5047921;28;20025;-86
2023/12/23 09:04:15;;;;;;;2.78;1.30;;;11.50;99.90;;;;;;5047970;28;20025;-83
2023/12/23 09:06:40;;;;;;;2.95;1.10;;;11.60;99.90;;;;;;5048696;28;20096;-84
2023/12/23 09:09:06;;;;;;;3.13;1.60;;;11.90;99.90;;;;;;5048305;28;20520;-83
2023/12/23 09:11:32;;;;;;;1.67;1.10;;;12.30;99.90;;;;;;5048577;28;20108;-85
2023/12/23 09:13:58;;;;;;;2.78;1.20;;;12.10;99.90;;;;;;5030761;28;20120;-85
2023/12/23 09:16:23;;;;;;;2.28;1.20;;;12.20;99.90;;;;;;5048730;28;20391;-87
2023/12/23 09:18:49;;;;;;;4.32;1.50;;;12.00;99.90;;;;;;5048407;28;20025;-87
2023/12/23 09:21:15;;;;;;;3.03;1.52;;;12.10;99.90;;;;;;5049398;28;20025;-85
2023/12/23 09:23:40;;;;;;;2.55;1.00;;;11.70;99.90;;;;;;5049372;28;20051;-87
2023/12/23 09:26:06;;;;;;;1.30;1.20;;;11.90;99.90;;;;;;5049192;28;20427;-86
2023/12/23 09:28:31;;;;;;;1.33;1.02;;;11.90;99.90;;;;;;5031434;28;20056;-86
2023/12/23 09:30:57;;;;;;;2.85;1.10;;;12.10;99.90;;;;;;5049501;28;20108;-83
2023/12/23 09:33:22;;;;;;;4.22;1.00;;;12.10;99.90;;;;;;5049983;28;20021;-86
2023/12/23 09:35:48;;;;;;;3.38;1.00;;;11.90;99.90;;;;;;5049158;28;20104;-86
2023/12/23 09:38:14;;;;;;;1.38;1.10;;;12.00;99.90;;;;;;5048929;28;20025;-85
2023/12/23 09:40:39;;;;;;;1.30;1.00;;;12.40;99.90;;;;;;5030780;28;20029;-86
2023/12/23 09:43:07;;;;;;;1.70;1.30;;;11.10;99.90;;;;;;5048849;28;20044;-91
2023/12/23 09:45:34;;;;;;;1.60;1.50;;;;;;;;;;5031806;28;20025;-86
2023/12/23 09:48:00;;;;;;;4.43;1.00;;;11.30;99.90;;;;;;5048878;28;20028;-86
2023/12/23 09:50:26;;;;;;;1.40;1.30;;;;;;;;;;5049833;28;20029;-86
2023/12/23 09:52:52;;;;;;;1.40;1.30;;;;;;;;;;5049198;28;20021;-86
2023/12/23 09:55:19;;;;;;;2.20;1.30;;;;;;;;;;5030982;28;20947;-85
2023/12/23 09:57:45;;;;;;;2.15;1.73;;;;;;;;;;5048881;28;20020;-85
2023/12/23 10:00:12;;;;;;;2.03;1.40;;;11.50;99.90;;;;;;5048848;28;20032;-84
2023/12/23 10:02:38;;;;;;;2.78;1.70;;;;;;;;;;5048590;28;20090;-83
2023/12/23 10:05:04;;;;;;;5.32;1.55;;;;;;;;;;5048768;28;20033;-84
2023/12/23 10:07:30;;;;;;;1.15;1.05;;;;;;;;;;5048905;28;20071;-88
2023/12/23 10:09:57;;;;;;;2.72;1.35;;;;;;;;;;5049499;28;20045;-85
2023/12/23 10:12:23;;;;;;;1.10;1.10;;;;;;;;;;5048880;28;20040;-85
2023/12/23 10:14:49;;;;;;;1.30;1.20;;;;;;;;;;5030368;28;20025;-85
2023/12/23 10:17:17;;;;;;;2.10;1.10;;;11.40;99.90;;;;;;5056798;28;20094;-87
2023/12/23 10:19:43;;;;;;;1.33;1.05;;;;;;;;;;5068791;28;20028;-88
2023/12/23 10:22:08;;;;;;;1.33;1.23;;;11.50;99.90;;;;;;5068470;28;20025;-88
2023/12/23 10:24:39;;;;;;;3.90;1.40;;;12.20;99.90;;;;;;5068817;28;20549;-82
2023/12/23 10:27:05;;;;;;;2.72;1.38;;;12.40;99.90;;;;;;5068398;28;20023;-87
2023/12/23 10:29:33;;;;;;;1.35;1.00;;;12.30;99.90;;;;;;5071427;28;20471;-83
2023/12/23 10:32:03;;;;;;;1.63;0.98;;;12.80;99.90;;;;;;5072966;28;20113;-89
2023/12/23 10:34:36;;;;;;;1.25;1.00;;;11.60;99.90;;;;;;5059431;28;20040;-84
2023/12/23 10:37:03;;;;;;;0.90;0.90;;;12.50;99.90;;;;;;5052388;28;20017;-83
2023/12/23 10:39:31;;;;;;;1.00;1.00;;;11.50;99.90;;;;;;5053071;28;20048;-88
2023/12/23 10:42:01;;;;;;;2.25;1.90;;;12.60;99.90;;;;;;5053561;28;20183;-90
2023/12/23 10:44:28;;;;;;;1.30;0.98;;;12.60;99.90;;;;;;5053615;28;20052;-88
2023/12/23 10:46:55;;;;;;;1.10;1.05;;;12.60;99.90;;;;;;5052218;28;20033;-84
2023/12/23 10:49:23;;;;;;;3.78;1.30;;;12.10;99.90;;;;;;5034953;28;20663;-89
2023/12/23 10:51:50;;;;;;;1.60;1.27;;;12.30;99.90;;;;;;5052061;28;20024;-90
2023/12/23 10:54:15;;;;;;;0.88;0.88;;;11.90;99.90;;;;;;5052380;28;20036;-88
2023/12/23 10:56:43;;;;;;;1.30;1.02;;;12.30;99.90;;;;;;5055691;28;20033;-84
2023/12/23 10:59:10;;;;;;;2.95;1.38;;;12.10;99.90;;;;;;5055768;28;20568;-87
2023/12/23 11:01:37;;;;;;;1.13;1.02;;;12.00;99.90;;;;;;5053617;28;20045;-86
2023/12/23 11:04:04;;;;;;;2.78;0.75;;;12.00;99.90;;;;;;5052069;28;20032;-88
2023/12/23 11:06:33;;;;;;;1.77;1.50;;;11.80;99.90;;;;;;5053028;28;20040;-90
2023/12/23 11:09:00;;;;;;;1.50;1.40;;;12.50;99.90;;;;;;5052581;28;20025;-85
2023/12/23 11:11:28;;;;;;;1.48;0.70;;;12.50;99.90;;;;;;5051698;28;20025;-82
2023/12/23 11:13:54;;;;;;;2.70;1.10;;;12.20;99.90;;;;;;5051645;28;20020;-88
2023/12/23 11:16:20;;;;;;;2.53;0.80;;;12.30;99.90;;;;;;5051695;28;20033;-88
2023/12/23 11:18:45;;;;;;;2.15;1.10;;;12.10;99.90;;;;;;5051381;28;20028;-87
2023/12/23 11:21:18;;;;;;;2.00;1.50;;;12.20;99.90;;;;;;5051436;28;20088;-89
2023/12/23 11:23:44;;;;;;;3.30;1.50;;;12.10;99.90;;;;;;5033439;28;20404;-86
2023/12/23 11:26:42;;;;;;;1.00;1.00;;;12.00;99.90;;;;;;5051094;28;20025;-83
2023/12/23 11:29:11;;;;;;;1.13;1.02;;;12.40;99.90;;;;;;5050983;28;20075;-82
2023/12/23 11:31:37;;;;;;;1.20;1.10;;;11.80;99.90;;;;;;5051600;28;20017;-90
2023/12/23 11:34:23;;;;;;;1.63;1.10;;;12.50;99.90;;;;;;5052970;28;20107;-92
2023/12/23 11:36:50;;;;;;;0.80;0.80;;;12.30;99.90;;;;;;5030242;28;20489;-85
2023/12/23 11:39:16;;;;;;;1.25;0.93;;;12.20;99.90;;;;;;5030989;28;20026;-84
2023/12/23 11:41:43;;;;;;;1.58;0.93;;;12.60;99.90;;;;;;5030770;28;20021;-85
2023/12/23 11:44:11;;;;;;;0.80;0.80;;;12.60;99.90;;;;;;5032551;28;20037;-89
2023/12/23 11:46:39;;;;;;;3.63;1.00;;;12.60;99.90;;;;;;5031214;28;20025;-84
2023/12/23 11:49:08;;;;;;;0.80;0.80;;;12.40;99.90;;;;;;5031289;28;20037;-84
2023/12/23 11:51:35;;;;;;;0.70;0.70;;;12.40;99.90;;;;;;5031483;28;20021;-85
2023/12/23 11:54:01;;;;;;;0.88;0.75;;;12.30;99.90;;;;;;5031758;28;20029;-88
2023/12/23 11:56:27;;;;;;;0.82;0.82;;;12.80;99.90;;;;;;5030948;28;20026;-84
2023/12/23 11:58:53;;;;;;;0.85;0.85;;;12.60;99.90;;;;;;5031094;28;20504;-83
2023/12/23 12:01:19;;;;;;;2.30;1.00;;;12.60;99.90;;;;;;5047406;28;20025;-83
2023/12/23 12:03:46;;;;;;;1.50;1.40;;;12.20;99.90;;;;;;5050403;28;20040;-87
2023/12/23 12:06:11;;;;;;;1.42;0.93;;;12.60;99.90;;;;;;5050676;28;20027;-84
2023/12/23 12:08:37;;;;;;;0.80;0.80;;;12.60;99.90;;;;;;5032755;28;20025;-84
2023/12/23 12:11:03;;;;;;;1.58;1.00;;;13.30;99.90;;;;;;5050306;28;20037;-84
2023/12/23 12:13:34;;;;;;;0.85;0.85;;;12.40;99.90;;;;;;5050420;28;20013;-87
2023/12/23 12:15:59;;;;;;;1.10;1.10;;;13.00;99.90;;;;;;5049971;28;20500;-87
2023/12/23 12:18:25;;;;;;;1.40;1.00;;;13.10;99.90;;;;;;5039000;28;20235;-85
2023/12/23 12:20:50;;;;;;;1.45;1.20;;;13.20;99.90;;;;;;5041670;28;20566;-84
2023/12/23 12:23:16;;;;;;;1.30;1.20;;;13.20;99.90;;;;;;5062749;28;20041;-84
2023/12/23 12:25:51;;;;;;;1.45;1.35;;;13.10;99.90;;;;;;5049894;28;20021;-84
2023/12/23 12:28:17;;;;;;;1.80;1.58;;;13.10;99.90;;;;;;5058067;28;20021;-83
2023/12/23 12:30:46;;;;;;;2.17;1.40;;;13.00;99.90;;;;;;5033594;28;20030;-83
2023/12/23 12:33:11;;;;;;;1.67;1.55;;;13.00;99.90;;;;;;5030274;28;20025;-83
2023/12/23 12:35:37;;;;;;;1.67;1.10;;;12.90;99.90;;;;;;5030266;28;20018;-83
2023/12/23 12:38:03;;;;;;;2.05;1.58;;;13.10;99.90;;;;;;5040463;28;20032;-87
2023/12/23 12:40:34;;;;;;;2.72;1.90;;;12.80;99.90;;;;;;5050279;28;20404;-87
2023/12/23 12:43:05;;;;;;;3.05;2.10;;;13.40;99.90;;;;;;5049989;28;20428;-84
2023/12/23 12:45:38;;;;;;;1.20;1.10;;;12.70;99.90;;;;;;5050088;28;20385;-83